Time;durP1;ratioP1;P1;durP2;ratioP2;P2;SDS_P1;SDS_P2;PMS_P1;PMS_P2;Temp;Humidity;BMP_temperature;BMP_pressure;BME280_temperature;BME280_humidity;BME280_pressure;Samples;Min_cycle;Max_cycle;Signal;HPM_P1;HPM_P2
2021/05/27 00:01:19;;;;;;;3.55;1.63;;;;;;;;;;6242834;22;20075;-53
2021/05/27 00:03:47;;;;;;;3.13;1.50;;;;;;;;;;6266425;22;20014;-54
2021/05/27 00:06:15;;;;;;;4.28;1.67;;;;;;;;;;6242547;22;20000;-50
2021/05/27 00:08:42;;;;;;;2.50;1.50;;;;;;;;;;6266472;22;20019;-50
2021/05/27 00:11:08;;;;;;;2.47;1.67;;;;;;;;;;6242844;22;20001;-51
2021/05/27 00:13:34;;;;;;;2.25;1.40;;;;;;;;;;6242443;22;20047;-50
2021/05/27 00:16:00;;;;;;;2.42;1.40;;;;;;;;;;6242937;22;20004;-54
2021/05/27 00:18:26;;;;;;;3.53;1.90;;;;;;;;;;6242951;22;20016;-52
2021/05/27 00:20:52;;;;;;;3.07;1.80;;;;;;;;;;6266720;22;20027;-53
2021/05/27 00:23:18;;;;;;;2.72;1.42;;;;;;;;;;6242544;22;20012;-51
2021/05/27 00:25:45;;;;;;;3.92;1.70;;;;;;;;;;6242746;22;20003;-51
2021/05/27 00:28:11;;;;;;;3.88;1.60;;;;;;;;;;6243075;22;20000;-51
2021/05/27 00:30:39;;;;;;;3.03;1.58;;;;;;;;;;6242678;22;20058;-52
2021/05/27 00:33:05;;;;;;;1.92;1.35;;;;;;;;;;6266717;22;20015;-50
2021/05/27 00:35:31;;;;;;;2.65;1.60;;;;;;;;;;6266283;22;20047;-51
2021/05/27 00:37:57;;;;;;;2.80;1.58;;;;;;;;;;6242911;22;20798;-51
2021/05/27 00:40:23;;;;;;;2.85;1.67;;;;;;;;;;6242959;22;20004;-50
2021/05/27 00:42:52;;;;;;;3.92;1.52;;;;;;;;;;6242516;22;20020;-51
2021/05/27 00:45:20;;;;;;;2.75;1.60;;;;;;;;;;6266412;22;20069;-49
2021/05/27 00:47:46;;;;;;;2.80;1.60;;;;;;;;;;6263466;22;20004;-51
2021/05/27 00:50:20;;;;;;;2.25;1.35;;;;;;;;;;6240163;22;20000;-49
2021/05/27 00:52:47;;;;;;;3.10;1.75;;;;;;;;;;6240343;22;20007;-51
2021/05/27 00:55:15;;;;;;;3.50;1.70;;;;;;;;;;6240329;22;20001;-49
2021/05/27 00:57:42;;;;;;;2.13;1.63;;;;;;;;;;6240453;22;20000;-51
2021/05/27 01:00:10;;;;;;;2.53;1.70;;;;;;;;;;6240542;22;20039;-51
2021/05/27 01:02:36;;;;;;;2.75;1.55;;;;;;;;;;6241630;22;20019;-51
2021/05/27 01:05:03;;;;;;;2.80;1.77;;;;;;;;;;6242399;22;20005;-50
2021/05/27 01:07:29;;;;;;;2.40;1.58;;;;;;;;;;6242429;22;19996;-55
2021/05/27 01:09:57;;;;;;;3.13;1.50;;;;;;;;;;6266302;22;20004;-51
2021/05/27 01:12:24;;;;;;;3.22;1.75;;;;;;;;;;6266343;22;20451;-51
2021/05/27 01:17:38;;;;;;;1.98;1.50;;;;;;;;;;6241010;23;20094;-48
2021/05/27 01:20:11;;;;;;;2.50;1.50;;;;;;;;;;6241560;22;19996;-51
2021/05/27 01:22:37;;;;;;;2.33;1.60;;;;;;;;;;6237317;22;20008;-52
2021/05/27 01:25:05;;;;;;;4.70;2.08;;;;;;;;;;6265401;22;20012;-54
2021/05/27 01:27:33;;;;;;;;;;;;;;;;;;6265019;22;20004;-56
2021/05/27 01:30:03;;;;;;;3.22;1.80;;;;;;;;;;6241503;22;19907;-54
2021/05/27 01:32:32;;;;;;;2.85;1.85;;;;;;;;;;6241472;22;20003;-55
2021/05/27 01:35:00;;;;;;;3.38;1.60;;;;;;;;;;6265786;22;20079;-55
2021/05/27 01:37:29;;;;;;;2.53;1.80;;;;;;;;;;6266156;22;20079;-55
2021/05/27 01:40:01;;;;;;;3.05;1.58;;;;;;;;;;6266245;22;20050;-53
2021/05/27 01:42:28;;;;;;;2.03;1.30;;;;;;;;;;6242158;22;20084;-53
2021/05/27 01:44:54;;;;;;;2.80;1.60;;;;;;;;;;6241460;22;20034;-55
2021/05/27 01:47:22;;;;;;;3.75;1.50;;;;;;;;;;6241750;22;20549;-54
2021/05/27 01:49:48;;;;;;;4.53;1.92;;;;;;;;;;6266104;22;20090;-54
2021/05/27 01:52:17;;;;;;;2.97;1.52;;;;;;;;;;6241864;22;20008;-50
2021/05/27 01:54:45;;;;;;;2.28;1.52;;;;;;;;;;6242173;22;20010;-52
2021/05/27 01:57:11;;;;;;;2.55;1.55;;;;;;;;;;6265942;22;20058;-54
2021/05/27 01:59:38;;;;;;;3.22;1.80;;;;;;;;;;6241758;22;20005;-51
2021/05/27 02:02:06;;;;;;;2.77;1.33;;;;;;;;;;6265664;22;20437;-54
2021/05/27 02:04:32;;;;;;;1.95;1.42;;;;;;;;;;6241503;22;20449;-53
2021/05/27 02:07:07;;;;;;;3.95;1.60;;;;;;;;;;6241413;22;20086;-53
2021/05/27 02:09:33;;;;;;;2.08;1.27;;;;;;;;;;6265944;22;20001;-53
2021/05/27 02:11:59;;;;;;;1.90;1.50;;;;;;;;;;6242009;22;20076;-52
2021/05/27 02:14:28;;;;;;;2.58;1.50;;;;;;;;;;6240585;22;19997;-54
2021/05/27 02:16:56;;;;;;;2.58;1.55;;;;;;;;;;6265063;22;20091;-53
2021/05/27 02:19:25;;;;;;;2.50;1.52;;;;;;;;;;6264961;22;20000;-53
2021/05/27 02:21:52;;;;;;;2.05;1.33;;;;;;;;;;6264701;22;20401;-53
2021/05/27 02:24:21;;;;;;;3.08;1.48;;;;;;;;;;6265860;22;20050;-54
2021/05/27 02:26:49;;;;;;;2.45;1.33;;;;;;;;;;6265334;22;20004;-54
2021/05/27 02:29:21;;;;;;;2.30;1.30;;;;;;;;;;6263941;22;20114;-55
2021/05/27 02:31:50;;;;;;;2.83;1.80;;;;;;;;;;6239758;22;20010;-54
2021/05/27 02:34:18;;;;;;;2.22;1.20;;;;;;;;;;6239689;22;20053;-55
2021/05/27 02:36:44;;;;;;;1.90;1.50;;;;;;;;;;6264102;22;20027;-53
2021/05/27 02:39:10;;;;;;;2.60;1.50;;;;;;;;;;6265617;22;20005;-51
2021/05/27 02:41:37;;;;;;;2.20;1.25;;;;;;;;;;6241630;22;20016;-54
2021/05/27 02:44:05;;;;;;;2.35;1.33;;;;;;;;;;6265717;22;20019;-54
2021/05/27 02:46:31;;;;;;;2.30;1.38;;;;;;;;;;6265356;22;20010;-52
2021/05/27 02:48:58;;;;;;;2.00;1.20;;;;;;;;;;6241623;22;20000;-52
2021/05/27 02:54:30;;;;;;;2.50;1.30;;;;;;;;;;6240066;23;20123;-54
2021/05/27 02:56:59;;;;;;;2.03;1.50;;;;;;;;;;6239029;22;20004;-53
2021/05/27 02:59:26;;;;;;;2.08;1.60;;;;;;;;;;6262794;22;20087;-54
2021/05/27 03:01:53;;;;;;;3.10;1.60;;;;;;;;;;6239019;22;20008;-56
2021/05/27 03:04:21;;;;;;;2.60;1.40;;;;;;;;;;6263181;22;20004;-55
2021/05/27 03:06:48;;;;;;;2.25;1.55;;;;;;;;;;6239634;22;20030;-54
2021/05/27 03:09:14;;;;;;;1.98;1.40;;;;;;;;;;6239853;22;20000;-53
2021/05/27 03:11:42;;;;;;;3.40;1.92;;;;;;;;;;6239187;22;20508;-50
2021/05/27 03:14:09;;;;;;;2.90;1.48;;;;;;;;;;6263228;22;20022;-55
2021/05/27 03:16:37;;;;;;;2.25;1.17;;;;;;;;;;6240419;22;20445;-54
2021/05/27 03:19:03;;;;;;;2.63;1.55;;;;;;;;;;6241166;22;20035;-53
2021/05/27 03:21:29;;;;;;;2.08;1.38;;;;;;;;;;6241353;22;20026;-52
2021/05/27 03:23:55;;;;;;;2.83;1.40;;;;;;;;;;6243616;22;20004;-54
2021/05/27 03:26:27;;;;;;;2.97;1.55;;;;;;;;;;6243848;22;20004;-53
2021/05/27 03:28:55;;;;;;;2.42;1.50;;;;;;;;;;6266951;22;20432;-52
2021/05/27 03:31:24;;;;;;;3.28;1.60;;;;;;;;;;6266826;22;20018;-57
2021/05/27 03:33:50;;;;;;;2.67;1.40;;;;;;;;;;6242969;22;20038;-54
2021/05/27 03:39:20;;;;;;;2.10;1.20;;;;;;;;;;6241472;23;20059;-55
2021/05/27 03:41:48;;;;;;;2.45;1.50;;;;;;;;;;6240802;22;20062;-55
2021/05/27 03:44:14;;;;;;;2.08;1.33;;;;;;;;;;6240737;22;20485;-55
2021/05/27 03:46:40;;;;;;;2.03;1.50;;;;;;;;;;6240852;22;20000;-50
2021/05/27 03:49:06;;;;;;;2.20;1.45;;;;;;;;;;6264706;22;20205;-55
2021/05/27 03:51:32;;;;;;;2.45;1.45;;;;;;;;;;6264485;22;20023;-52
2021/05/27 03:53:58;;;;;;;3.47;1.50;;;;;;;;;;6242694;22;20357;-49
2021/05/27 03:56:27;;;;;;;2.38;1.20;;;;;;;;;;6243075;22;20087;-51
2021/05/27 04:01:42;;;;;;;2.15;1.30;;;;;;;;;;6242000;23;20026;-55
2021/05/27 04:07:12;;;;;;;2.33;1.30;;;;;;;;;;6241831;23;20444;-52
2021/05/27 04:09:38;;;;;;;2.15;1.40;;;;;;;;;;6242499;22;20000;-51
2021/05/27 04:17:39;;;;;;;3.08;2.10;;;;;;;;;;6241624;23;20027;-54
2021/05/27 04:20:05;;;;;;;2.97;2.05;;;;;;;;;;6241552;22;20007;-54
2021/05/27 04:22:32;;;;;;;4.10;1.88;;;;;;;;;;6265256;22;20020;-54
2021/05/27 04:24:58;;;;;;;4.18;1.98;;;;;;;;;;6242737;22;20062;-52
2021/05/27 04:27:24;;;;;;;3.28;2.10;;;;;;;;;;6242196;22;20008;-50
2021/05/27 04:29:53;;;;;;;4.63;2.17;;;;;;;;;;6242473;22;20004;-53
2021/05/27 04:35:04;;;;;;;3.80;2.40;;;;;;;;;;6242484;22;20023;-52
2021/05/27 04:37:30;;;;;;;3.70;2.20;;;;;;;;;;6267007;22;20005;-53
2021/05/27 04:39:56;;;;;;;2.78;2.15;;;;;;;;;;6242621;22;20023;-53
2021/05/27 04:42:22;;;;;;;3.40;2.13;;;;;;;;;;6243472;22;20008;-51
2021/05/27 04:44:50;;;;;;;5.10;2.33;;;;;;;;;;6267539;22;20023;-51
2021/05/27 04:47:17;;;;;;;2.70;2.20;;;;;;;;;;6266871;22;20178;-49
2021/05/27 04:49:43;;;;;;;4.68;2.17;;;;;;;;;;6243074;22;20095;-51
2021/05/27 04:52:09;;;;;;;5.07;2.40;;;;;;;;;;6243010;22;20005;-52
2021/05/27 04:54:35;;;;;;;5.05;2.33;;;;;;;;;;6241885;23;20031;-55
2021/05/27 04:57:01;;;;;;;4.50;2.47;;;;;;;;;;6243263;22;20074;-51
2021/05/27 04:59:29;;;;;;;3.30;2.33;;;;;;;;;;6267495;22;20002;-55
2021/05/27 05:01:55;;;;;;;3.95;2.30;;;;;;;;;;6266444;22;20038;-53
2021/05/27 05:04:21;;;;;;;4.28;2.72;;;;;;;;;;6240072;22;20024;-54
2021/05/27 05:06:50;;;;;;;3.58;2.40;;;;;;;;;;6240398;22;19996;-51
2021/05/27 05:09:16;;;;;;;3.95;2.50;;;;;;;;;;6241182;22;20000;-53
2021/05/27 05:11:42;;;;;;;4.38;2.70;;;;;;;;;;6265440;22;20004;-57
2021/05/27 05:14:08;;;;;;;4.55;2.85;;;;;;;;;;6241194;22;20011;-50
2021/05/27 05:16:34;;;;;;;4.28;2.95;;;;;;;;;;6265125;22;20008;-54
2021/05/27 05:19:00;;;;;;;5.93;3.33;;;;;;;;;;6241442;22;19996;-50
2021/05/27 05:21:26;;;;;;;4.93;3.65;;;;;;;;;;6241218;22;20000;-52
2021/05/27 05:23:53;;;;;;;5.93;3.63;;;;;;;;;;6241749;22;20062;-55
2021/05/27 05:26:19;;;;;;;7.32;3.85;;;;;;;;;;6241363;22;20431;-54
2021/05/27 05:28:45;;;;;;;6.32;3.83;;;;;;;;;;6241754;22;19996;-52
2021/05/27 05:31:11;;;;;;;6.88;3.90;;;;;;;;;;6241382;22;20007;-53
2021/05/27 05:33:37;;;;;;;5.82;3.20;;;;;;;;;;6240395;22;20452;-52
2021/05/27 05:36:06;;;;;;;5.53;3.70;;;;;;;;;;6239225;23;20042;-53
2021/05/27 05:38:32;;;;;;;5.40;3.42;;;;;;;;;;6264925;22;20004;-53
2021/05/27 05:40:58;;;;;;;6.05;3.28;;;;;;;;;;6264637;22;20000;-53
2021/05/27 05:43:24;;;;;;;5.15;2.90;;;;;;;;;;6241598;22;20000;-52
2021/05/27 05:45:50;;;;;;;5.32;2.97;;;;;;;;;;6241281;22;20003;-50
2021/05/27 05:48:16;;;;;;;5.55;3.20;;;;;;;;;;6240857;22;20047;-51
2021/05/27 05:50:46;;;;;;;6.80;3.30;;;;;;;;;;6264170;22;20161;-53
2021/05/27 05:53:13;;;;;;;6.47;3.47;;;;;;;;;;6240814;22;20000;-52
2021/05/27 05:55:39;;;;;;;5.82;3.10;;;;;;;;;;6240860;22;20144;-49
2021/05/27 05:58:05;;;;;;;4.38;3.15;;;;;;;;;;6264119;22;20318;-52
2021/05/27 06:00:32;;;;;;;5.28;3.22;;;;;;;;;;6265004;22;20019;-53
2021/05/27 06:02:59;;;;;;;4.35;2.92;;;;;;;;;;6264547;22;20298;-50
2021/05/27 06:05:25;;;;;;;6.00;3.22;;;;;;;;;;6241065;22;21136;-53
2021/05/27 06:07:51;;;;;;;4.72;2.90;;;;;;;;;;6241655;22;20012;-51
2021/05/27 06:10:17;;;;;;;4.80;2.75;;;;;;;;;;6240506;22;20012;-49
2021/05/27 06:12:43;;;;;;;4.85;2.47;;;;;;;;;;6242039;22;19996;-52
2021/05/27 06:15:10;;;;;;;3.97;2.53;;;;;;;;;;6241407;22;20388;-52
2021/05/27 06:17:36;;;;;;;5.50;2.50;;;;;;;;;;6265001;22;20271;-53
2021/05/27 06:20:03;;;;;;;4.60;2.35;;;;;;;;;;6265645;22;20231;-50
2021/05/27 06:22:29;;;;;;;5.78;2.22;;;;;;;;;;6241814;22;20081;-50
2021/05/27 06:24:55;;;;;;;5.28;2.58;;;;;;;;;;6242785;22;20000;-50
2021/05/27 06:27:21;;;;;;;3.63;2.10;;;;;;;;;;6242751;22;20076;-50
2021/05/27 06:29:47;;;;;;;4.40;2.47;;;;;;;;;;6266208;22;20091;-49
2021/05/27 06:32:13;;;;;;;5.43;2.40;;;;;;;;;;6241860;22;20088;-51
2021/05/27 06:34:40;;;;;;;3.67;2.00;;;;;;;;;;6241574;22;20059;-52
2021/05/27 06:37:08;;;;;;;3.20;1.88;;;;;;;;;;6240603;22;20004;-51
2021/05/27 06:39:35;;;;;;;4.22;2.00;;;;;;;;;;6265023;22;20001;-52
2021/05/27 06:42:01;;;;;;;5.25;2.03;;;;;;;;;;6241255;22;20064;-50
2021/05/27 06:44:27;;;;;;;5.18;1.90;;;;;;;;;;6264886;22;20349;-52
2021/05/27 06:46:53;;;;;;;4.90;1.90;;;;;;;;;;6240608;22;19997;-51
2021/05/27 06:49:19;;;;;;;6.30;1.88;;;;;;;;;;6241491;22;20004;-52
2021/05/27 06:51:46;;;;;;;5.25;2.03;;;;;;;;;;6242583;22;20087;-51
2021/05/27 06:54:12;;;;;;;5.55;1.83;;;;;;;;;;6243408;22;20035;-52
2021/05/27 06:56:38;;;;;;;2.47;1.50;;;;;;;;;;6241661;22;20392;-50
2021/05/27 06:59:06;;;;;;;3.80;1.83;;;;;;;;;;6267318;22;20016;-54
2021/05/27 07:01:33;;;;;;;2.95;1.42;;;;;;;;;;6242572;22;20000;-53
2021/05/27 07:03:59;;;;;;;3.58;1.58;;;;;;;;;;6243202;22;20008;-52
2021/05/27 07:06:25;;;;;;;2.60;1.45;;;;;;;;;;6242506;22;20028;-54
2021/05/27 07:08:51;;;;;;;4.53;1.60;;;;;;;;;;6266355;22;20282;-53
2021/05/27 07:11:17;;;;;;;3.88;1.45;;;;;;;;;;6243473;22;20073;-53
2021/05/27 07:13:43;;;;;;;2.25;1.83;;;;;;;;;;6242908;22;20000;-51
2021/05/27 07:16:09;;;;;;;3.72;1.40;;;;;;;;;;6242676;22;19996;-56
2021/05/27 07:18:35;;;;;;;2.63;1.55;;;;;;;;;;6259658;22;20031;-48
2021/05/27 07:21:02;;;;;;;3.67;1.50;;;;;;;;;;6241408;22;19996;-48
2021/05/27 07:23:28;;;;;;;3.30;1.90;;;;;;;;;;6242832;22;20091;-49
2021/05/27 07:25:55;;;;;;;3.85;1.60;;;;;;;;;;6265917;22;20287;-52
2021/05/27 07:28:23;;;;;;;4.28;1.60;;;;;;;;;;6242821;22;20087;-51
2021/05/27 07:30:49;;;;;;;4.03;1.52;;;;;;;;;;6241595;22;20000;-56
2021/05/27 07:33:16;;;;;;;4.18;1.67;;;;;;;;;;6266820;22;20710;-49
2021/05/27 07:35:42;;;;;;;3.30;1.35;;;;;;;;;;6265204;22;20028;-54
2021/05/27 07:38:08;;;;;;;4.00;1.45;;;;;;;;;;6265448;22;20004;-51
2021/05/27 07:40:34;;;;;;;4.00;1.77;;;;;;;;;;6242267;22;20382;-53
2021/05/27 07:43:00;;;;;;;2.13;1.20;;;;;;;;;;6266137;22;20011;-51
2021/05/27 07:45:27;;;;;;;3.92;1.50;;;;;;;;;;6242731;22;20000;-53
2021/05/27 07:47:53;;;;;;;1.90;1.42;;;;;;;;;;6242284;22;20066;-52
2021/05/27 07:50:23;;;;;;;2.25;1.45;;;;;;;;;;6240898;22;20032;-54
2021/05/27 07:52:52;;;;;;;3.85;1.67;;;;;;;;;;6241952;22;20171;-47
2021/05/27 07:55:19;;;;;;;2.15;1.27;;;;;;;;;;6242613;22;20344;-50
2021/05/27 07:57:45;;;;;;;3.20;1.60;;;;;;;;;;6241812;22;20078;-57
2021/05/27 08:00:11;;;;;;;3.03;1.38;;;;;;;;;;6242315;22;20005;-54
2021/05/27 08:02:38;;;;;;;2.70;1.43;;;;;;;;;;6265031;22;20103;-52
2021/05/27 08:05:04;;;;;;;4.10;1.53;;;;;;;;;;6243037;22;20089;-48
2021/05/27 08:07:30;;;;;;;2.57;1.50;;;;;;;;;;6260177;22;20223;-48
2021/05/27 08:09:57;;;;;;;4.55;1.83;;;;;;;;;;6238624;22;20007;-50
2021/05/27 08:12:23;;;;;;;2.05;1.58;;;;;;;;;;6242070;22;19996;-52
2021/05/27 08:14:49;;;;;;;2.17;1.20;;;;;;;;;;6265847;22;20455;-50
2021/05/27 08:17:15;;;;;;;2.70;2.10;;;;;;;;;;6241510;22;20023;-50
2021/05/27 08:19:41;;;;;;;2.70;1.65;;;;;;;;;;6241250;22;20386;-57
2021/05/27 08:22:09;;;;;;;4.35;1.77;;;;;;;;;;6241042;22;20020;-55
2021/05/27 08:24:35;;;;;;;2.33;1.58;;;;;;;;;;6266423;22;20067;-51
2021/05/27 08:27:01;;;;;;;2.65;1.50;;;;;;;;;;6241685;22;20448;-57
2021/05/27 08:29:27;;;;;;;2.67;1.65;;;;;;;;;;6266407;22;20020;-51
2021/05/27 08:31:53;;;;;;;2.60;1.48;;;;;;;;;;6265337;22;20009;-48
2021/05/27 08:34:19;;;;;;;2.60;1.52;;;;;;;;;;6242355;22;20992;-58
2021/05/27 08:36:46;;;;;;;3.15;1.48;;;;;;;;;;6266389;22;20012;-53
2021/05/27 08:39:12;;;;;;;2.97;1.50;;;;;;;;;;6242837;22;20000;-58
2021/05/27 08:41:38;;;;;;;2.47;1.80;;;;;;;;;;6242410;22;20067;-53
2021/05/27 08:44:05;;;;;;;2.30;1.52;;;;;;;;;;6243038;22;20345;-53
2021/05/27 08:46:32;;;;;;;3.00;1.88;;;;;;;;;;6266106;22;20008;-52
2021/05/27 08:49:00;;;;;;;2.30;1.70;;;;;;;;;;6266359;22;20087;-53
2021/05/27 08:51:28;;;;;;;2.78;1.58;;;;;;;;;;6242483;22;20024;-52
2021/05/27 08:53:56;;;;;;;2.92;1.67;;;;;;;;;;6242244;22;20010;-53
2021/05/27 08:56:22;;;;;;;2.22;1.52;;;;;;;;;;6265996;22;20108;-54
2021/05/27 08:58:48;;;;;;;3.28;1.67;;;;;;;;;;6241462;22;20394;-55
2021/05/27 09:01:19;;;;;;;2.67;1.65;;;;;;;;;;6265188;22;20015;-54
2021/05/27 09:03:46;;;;;;;3.13;1.80;;;;;;;;;;6241782;22;20027;-60
2021/05/27 09:06:13;;;;;;;2.95;1.80;;;;;;;;;;6242478;22;20035;-56
2021/05/27 09:08:39;;;;;;;5.30;2.10;;;;;;;;;;6241997;22;20000;-56
2021/05/27 09:11:10;;;;;;;2.38;1.70;;;;;;;;;;6265210;22;20087;-54
2021/05/27 09:13:36;;;;;;;2.10;1.58;;;;;;;;;;6266428;22;20497;-57
2021/05/27 09:16:07;;;;;;;1.80;1.45;;;;;;;;;;6265958;22;20008;-50
2021/05/27 09:18:34;;;;;;;2.83;1.70;;;;;;;;;;6264825;22;20008;-49
2021/05/27 09:21:01;;;;;;;3.55;1.65;;;;;;;;;;6265592;22;20008;-52
2021/05/27 09:23:27;;;;;;;3.57;1.63;;;;;;;;;;6241003;22;20409;-51
2021/05/27 09:25:56;;;;;;;2.30;1.60;;;;;;;;;;6242076;22;19996;-49
2021/05/27 09:28:24;;;;;;;3.17;1.90;;;;;;;;;;6240344;22;20075;-49
2021/05/27 09:30:54;;;;;;;2.95;1.60;;;;;;;;;;6241583;22;19997;-49
2021/05/27 09:33:31;;;;;;;2.58;1.42;;;;;;;;;;6240906;22;20079;-50
2021/05/27 09:35:57;;;;;;;;;;;;;;;;;;6242569;22;20020;-54
2021/05/27 09:38:27;;;;;;;8.17;2.07;;;;;;;;;;6241502;22;19906;-59
2021/05/27 09:40:53;;;;;;;5.55;1.75;;;;;;;;;;6240835;22;20027;-58
2021/05/27 09:43:23;;;;;;;7.10;1.70;;;;;;;;;;6241657;22;20008;-50
2021/05/27 09:46:06;;;;;;;5.53;1.52;;;;;;;;;;6240369;22;20007;-51
2021/05/27 09:48:32;;;;;;;2.65;1.40;;;;;;;;;;6239126;22;20000;-53
2021/05/27 09:51:00;;;;;;;3.45;1.73;;;;;;;;;;6264302;22;20075;-53
2021/05/27 09:53:30;;;;;;;5.72;1.52;;;;;;;;;;6240645;22;20451;-51
2021/05/27 09:55:56;;;;;;;5.88;1.30;;;;;;;;;;6262987;22;20090;-54
2021/05/27 09:58:23;;;;;;;2.35;1.17;;;;;;;;;;6264390;22;20004;-51
2021/05/27 10:00:50;;;;;;;2.75;1.10;;;;;;;;;;6264443;22;20031;-51
2021/05/27 10:03:25;;;;;;;2.38;1.15;;;;;;;;;;6264820;22;20012;-50
2021/05/27 10:05:52;;;;;;;2.25;1.13;;;;;;;;;;6240860;22;20026;-51
2021/05/27 10:08:21;;;;;;;2.50;1.13;;;;;;;;;;6264316;22;20046;-51
2021/05/27 10:10:48;;;;;;;2.63;1.10;;;;;;;;;;6264195;22;20715;-55
2021/05/27 10:13:16;;;;;;;4.35;1.10;;;;;;;;;;6264721;22;20036;-51
2021/05/27 10:15:43;;;;;;;3.45;1.20;;;;;;;;;;6264543;22;20096;-50
2021/05/27 10:18:10;;;;;;;1.67;0.93;;;;;;;;;;6264424;22;20031;-51
2021/05/27 10:20:39;;;;;;;2.70;1.13;;;;;;;;;;6265161;22;20015;-51
2021/05/27 10:23:06;;;;;;;3.10;1.40;;;;;;;;;;6240749;22;20178;-51
2021/05/27 10:25:32;;;;;;;3.58;1.55;;;;;;;;;;6264562;22;20069;-51
2021/05/27 10:28:01;;;;;;;2.03;1.00;;;;;;;;;;6241553;22;20006;-55
2021/05/27 10:30:27;;;;;;;2.38;1.33;;;;;;;;;;6266038;22;20054;-49
2021/05/27 10:33:01;;;;;;;3.03;1.10;;;;;;;;;;6264092;22;20015;-54
2021/05/27 10:35:45;;;;;;;2.65;1.13;;;;;;;;;;6241107;22;20130;-52
2021/05/27 10:38:11;;;;;;;1.25;0.90;;;;;;;;;;6240654;22;20387;-52
2021/05/27 10:40:38;;;;;;;1.77;1.00;;;;;;;;;;6264350;22;20103;-52
2021/05/27 10:43:08;;;;;;;2.05;1.10;;;;;;;;;;6264765;22;20081;-51
2021/05/27 10:45:37;;;;;;;3.22;1.30;;;;;;;;;;6240905;22;20011;-50
2021/05/27 10:48:15;;;;;;;2.65;1.20;;;;;;;;;;6264625;22;20007;-52
2021/05/27 10:50:57;;;;;;;2.65;1.35;;;;;;;;;;6240298;22;20000;-53
2021/05/27 10:56:02;;;;;;;1.63;1.05;;;;;;;;;;6240494;22;20066;-50
2021/05/27 10:58:47;;;;;;;4.30;1.20;;;;;;;;;;6241402;22;20458;-51
2021/05/27 11:01:20;;;;;;;2.40;1.00;;;;;;;;;;6241122;22;20474;-51
2021/05/27 11:03:54;;;;;;;3.15;1.25;;;;;;;;;;6263104;22;20046;-51
2021/05/27 11:06:29;;;;;;;2.47;1.50;;;;;;;;;;6240848;22;20076;-52
2021/05/27 11:09:24;;;;;;;2.30;1.10;;;;;;;;;;6241048;22;20076;-51
2021/05/27 11:11:51;;;;;;;2.40;1.00;;;;;;;;;;6207190;23;20061;-53
2021/05/27 11:14:23;;;;;;;1.33;0.80;;;;;;;;;;6264164;22;20012;-52
2021/05/27 11:17:08;;;;;;;2.65;1.20;;;;;;;;;;6264137;22;20011;-53
2021/05/27 11:19:57;;;;;;;2.83;1.17;;;;;;;;;;6240347;22;20108;-54
2021/05/27 11:25:24;;;;;;;1.65;1.10;;;;;;;;;;6240325;22;20036;-55
2021/05/27 11:27:53;;;;;;;2.13;1.10;;;;;;;;;;6241586;22;20001;-49
2021/05/27 11:30:36;;;;;;;2.25;1.17;;;;;;;;;;6240353;22;20401;-52
2021/05/27 11:33:29;;;;;;;3.05;1.08;;;;;;;;;;6240515;22;20073;-49
2021/05/27 11:35:57;;;;;;;2.00;1.10;;;;;;;;;;6264871;22;20024;-50
2021/05/27 11:38:32;;;;;;;3.35;1.10;;;;;;;;;;6242312;22;20071;-52
2021/05/27 11:40:59;;;;;;;2.65;1.00;;;;;;;;;;6242501;22;19997;-52
2021/05/27 11:43:25;;;;;;;;;;;;;;;;;;6266021;22;20023;-52
2021/05/27 11:45:52;;;;;;;2.03;1.27;;;;;;;;;;6242541;22;19924;-48
2021/05/27 11:50:53;;;;;;;1.58;1.00;;;;;;;;;;6242483;22;20301;-49
2021/05/27 11:53:23;;;;;;;2.28;0.90;;;;;;;;;;6242425;22;19996;-52
2021/05/27 11:55:56;;;;;;;2.78;1.17;;;;;;;;;;6242582;22;20001;-53
2021/05/27 11:58:39;;;;;;;2.00;1.10;;;;;;;;;;6266105;22;21345;-51
2021/05/27 12:01:12;;;;;;;2.33;1.35;;;;;;;;;;6266269;22;20000;-52
2021/05/27 12:03:39;;;;;;;2.15;1.00;;;;;;;;;;6242314;22;20012;-53
2021/05/27 12:06:05;;;;;;;1.65;0.98;;;;;;;;;;6242237;22;20079;-53
2021/05/27 12:08:40;;;;;;;2.35;1.10;;;;;;;;;;6242436;22;20004;-49
2021/05/27 12:11:07;;;;;;;1.75;0.88;;;;;;;;;;6265196;22;20008;-50
2021/05/27 12:13:33;;;;;;;1.97;1.10;;;;;;;;;;6242954;22;20058;-52
2021/05/27 12:15:59;;;;;;;3.10;1.45;;;;;;;;;;6266287;22;20355;-52
2021/05/27 12:18:25;;;;;;;2.97;1.55;;;;;;;;;;6242351;22;20000;-52
2021/05/27 12:20:51;;;;;;;4.20;1.40;;;;;;;;;;6241783;22;20062;-49
2021/05/27 12:23:18;;;;;;;2.33;1.27;;;;;;;;;;6242244;22;20061;-52
2021/05/27 12:25:46;;;;;;;1.73;1.02;;;;;;;;;;6242634;22;20015;-52
2021/05/27 12:28:13;;;;;;;1.88;1.10;;;;;;;;;;6266473;22;20378;-50
2021/05/27 12:30:40;;;;;;;2.35;1.08;;;;;;;;;;6265796;22;20512;-47
2021/05/27 12:33:10;;;;;;;2.67;1.08;;;;;;;;;;6242302;22;20000;-55
2021/05/27 12:35:37;;;;;;;2.83;1.20;;;;;;;;;;6242861;22;20024;-57
2021/05/27 12:38:03;;;;;;;;;;;;;;;;;;6242567;22;20000;-58
2021/05/27 12:40:32;;;;;;;2.05;1.05;;;;;;;;;;6242282;22;19904;-58
2021/05/27 12:42:59;;;;;;;2.47;1.00;;;;;;;;;;6242527;22;20058;-56
2021/05/27 12:45:30;;;;;;;2.03;1.10;;;;;;;;;;6265380;22;20027;-58
2021/05/27 12:48:18;;;;;;;2.63;1.08;;;;;;;;;;6266332;22;20005;-58
2021/05/27 12:50:53;;;;;;;3.67;1.45;;;;;;;;;;6266305;22;20000;-57
2021/05/27 12:53:23;;;;;;;1.65;1.00;;;;;;;;;;6266560;22;20012;-57
2021/05/27 12:55:49;;;;;;;2.67;1.10;;;;;;;;;;6266095;22;20001;-55
2021/05/27 12:58:32;;;;;;;3.25;1.20;;;;;;;;;;6266307;22;20004;-52
2021/05/27 13:00:59;;;;;;;1.63;1.00;;;;;;;;;;6265665;22;20015;-55
2021/05/27 13:03:26;;;;;;;2.22;1.15;;;;;;;;;;6265925;22;20454;-56
2021/05/27 13:06:11;;;;;;;1.58;1.13;;;;;;;;;;6264862;22;20083;-53
2021/05/27 13:08:37;;;;;;;3.05;1.02;;;;;;;;;;6241951;22;19996;-59
2021/05/27 13:11:20;;;;;;;1.67;1.10;;;;;;;;;;6265629;22;20402;-52
2021/05/27 13:13:46;;;;;;;1.83;1.08;;;;;;;;;;6265467;22;20103;-51
2021/05/27 13:16:31;;;;;;;1.63;0.90;;;;;;;;;;6241071;22;20008;-51
2021/05/27 13:18:57;;;;;;;1.77;1.08;;;;;;;;;;6241931;22;20433;-54
2021/05/27 13:21:23;;;;;;;2.22;1.23;;;;;;;;;;6265368;22;20052;-53
2021/05/27 13:23:49;;;;;;;2.30;1.20;;;;;;;;;;6242307;22;20008;-55
2021/05/27 13:26:17;;;;;;;2.83;1.02;;;;;;;;;;6241815;22;20409;-56
2021/05/27 13:28:44;;;;;;;2.03;0.80;;;;;;;;;;6241817;22;20028;-56
2021/05/27 13:31:11;;;;;;;2.08;1.00;;;;;;;;;;6241064;22;20000;-60
2021/05/27 13:33:37;;;;;;;;;;;;;;;;;;6264853;22;20032;-59
2021/05/27 13:36:03;;;;;;;2.27;1.03;;;;;;;;;;6242948;22;19915;-50
2021/05/27 13:38:30;;;;;;;3.00;1.20;;;;;;;;;;6266365;22;20008;-50
2021/05/27 13:41:05;;;;;;;1.98;0.88;;;;;;;;;;6241880;22;20024;-53
2021/05/27 13:43:34;;;;;;;2.08;1.00;;;;;;;;;;6265684;22;20444;-56
2021/05/27 13:46:05;;;;;;;1.95;1.10;;;;;;;;;;6241832;22;20018;-53
2021/05/27 13:48:32;;;;;;;2.20;0.90;;;;;;;;;;6266226;22;20447;-58
2021/05/27 13:50:58;;;;;;;1.63;0.82;;;;;;;;;;6242430;22;20004;-53
2021/05/27 13:53:25;;;;;;;2.63;1.08;;;;;;;;;;6265130;22;20425;-54
2021/05/27 13:55:53;;;;;;;1.55;0.95;;;;;;;;;;6265349;22;20120;-58
2021/05/27 13:58:23;;;;;;;1.33;0.90;;;;;;;;;;6242227;22;20034;-58
2021/05/27 14:00:49;;;;;;;3.88;0.90;;;;;;;;;;6264100;22;21555;-60
2021/05/27 14:03:16;;;;;;;1.80;1.00;;;;;;;;;;6237655;22;20099;-59
2021/05/27 14:05:42;;;;;;;2.35;0.93;;;;;;;;;;6263170;22;20008;-61
2021/05/27 14:08:08;;;;;;;1.75;0.90;;;;;;;;;;6264745;22;20429;-56
2021/05/27 14:10:35;;;;;;;1.58;1.00;;;;;;;;;;6262460;22;20007;-58
2021/05/27 14:13:05;;;;;;;2.28;0.93;;;;;;;;;;6240373;22;20091;-57
2021/05/27 14:15:32;;;;;;;1.45;0.80;;;;;;;;;;6241094;22;20342;-59
2021/05/27 14:17:58;;;;;;;2.33;0.88;;;;;;;;;;6264454;22;20050;-55
2021/05/27 14:20:24;;;;;;;2.03;0.90;;;;;;;;;;6264923;22;20396;-58
2021/05/27 14:22:54;;;;;;;3.75;0.90;;;;;;;;;;6264021;22;20275;-51
2021/05/27 14:25:20;;;;;;;2.67;1.08;;;;;;;;;;6260094;22;20074;-61
2021/05/27 14:27:47;;;;;;;1.95;0.82;;;;;;;;;;6261991;22;20073;-58
2021/05/27 14:30:17;;;;;;;1.77;0.80;;;;;;;;;;6265540;22;20090;-60
2021/05/27 14:32:43;;;;;;;2.90;0.95;;;;;;;;;;6264927;22;20000;-58
2021/05/27 14:35:09;;;;;;;1.83;0.80;;;;;;;;;;6241037;22;20083;-57
2021/05/27 14:37:35;;;;;;;2.00;1.20;;;;;;;;;;6241311;22;20000;-55
2021/05/27 14:40:02;;;;;;;1.42;0.85;;;;;;;;;;6240631;22;20480;-50
2021/05/27 14:42:28;;;;;;;1.50;0.80;;;;;;;;;;6264701;22;20008;-51
2021/05/27 14:44:54;;;;;;;3.10;1.10;;;;;;;;;;6241609;22;20429;-50
2021/05/27 14:47:20;;;;;;;4.47;0.95;;;;;;;;;;6239539;22;20004;-49
2021/05/27 14:49:46;;;;;;;2.10;1.10;;;;;;;;;;6241458;22;20008;-58
2021/05/27 14:52:12;;;;;;;2.00;0.95;;;;;;;;;;6240885;22;20099;-55
2021/05/27 14:54:38;;;;;;;3.10;1.30;;;;;;;;;;6241212;22;20259;-58
2021/05/27 14:57:08;;;;;;;2.08;1.00;;;;;;;;;;6241452;22;20007;-57
2021/05/27 14:59:34;;;;;;;1.60;0.90;;;;;;;;;;6241194;22;20000;-51
2021/05/27 15:02:00;;;;;;;2.05;0.77;;;;;;;;;;6240091;22;20011;-57
2021/05/27 15:04:26;;;;;;;1.40;0.90;;;;;;;;;;6241168;22;20012;-59
2021/05/27 15:06:53;;;;;;;1.70;0.88;;;;;;;;;;6241055;22;20091;-57
2021/05/27 15:09:19;;;;;;;2.33;0.95;;;;;;;;;;6264206;22;20087;-56
2021/05/27 15:11:45;;;;;;;2.22;1.05;;;;;;;;;;6241816;22;20001;-60
2021/05/27 15:14:11;;;;;;;1.52;0.98;;;;;;;;;;6242811;22;20019;-55
2021/05/27 15:16:37;;;;;;;1.67;0.90;;;;;;;;;;6240650;22;20004;-55
2021/05/27 15:19:04;;;;;;;1.35;0.85;;;;;;;;;;6243111;22;20011;-56
2021/05/27 15:21:30;;;;;;;2.35;0.90;;;;;;;;;;6242632;22;20015;-53